createdAt,value
2019-03-10T00:00:32.855Z,100737.95
2019-03-10T00:01:40.484Z,100734.56
2019-03-10T00:02:47.832Z,100738.38
2019-03-10T00:03:55.161Z,100738.40
2019-03-10T00:05:02.308Z,100735.02
2019-03-10T00:06:09.784Z,100731.66
2019-03-10T00:07:17.974Z,100731.27
2019-03-10T00:08:24.705Z,100729.55
2019-03-10T00:09:31.397Z,100722.36
2019-03-10T00:10:38.100Z,100723.20
2019-03-10T00:11:44.804Z,100722.38
2019-03-10T00:12:52.561Z,100728.30
2019-03-10T00:13:59.244Z,100730.00
2019-03-10T00:15:07.062Z,100729.13
2019-03-10T00:16:14.100Z,100729.57
2019-03-10T00:17:21.219Z,100729.13
2019-03-10T00:18:28.335Z,100736.76
2019-03-10T00:19:36.797Z,100735.09
2019-03-10T00:20:43.752Z,100739.78
2019-03-10T00:21:50.918Z,100737.20
2019-03-10T00:22:58.042Z,100736.76
2019-03-10T00:24:04.786Z,100726.18
2019-03-10T00:25:12.128Z,100720.22
2019-03-10T00:26:21.049Z,100724.02
2019-03-10T00:27:27.927Z,100720.60
2019-03-10T00:28:34.934Z,100719.77
2019-03-10T00:29:41.724Z,100715.52
2019-03-10T00:30:48.915Z,100716.39
2019-03-10T00:31:55.990Z,100713.41
2019-03-10T00:33:03.861Z,100709.59
2019-03-10T00:34:10.619Z,100715.13
2019-03-10T00:35:17.425Z,100712.59
2019-03-10T00:36:24.285Z,100711.33
2019-03-10T00:37:31.549Z,100718.55
2019-03-10T00:39:25.803Z,100717.27
2019-03-10T00:41:33.017Z,100717.23
2019-03-10T00:43:40.408Z,100718.99
2019-03-10T00:45:52.659Z,100718.56
2019-03-10T00:47:58.989Z,100713.97
2019-03-10T00:50:04.891Z,100703.81
2019-03-10T00:51:46.074Z,100694.92
2019-03-10T00:53:02.959Z,100698.78
2019-03-10T00:54:10.259Z,100691.16
2019-03-10T00:55:17.302Z,100691.60
2019-03-10T00:56:24.304Z,100692.00
2019-03-10T00:57:31.765Z,100686.92
2019-03-10T00:58:38.725Z,100686.92
2019-03-10T00:59:45.720Z,100683.94
2019-03-10T01:00:52.698Z,100685.65
2019-03-10T01:01:59.970Z,100680.99
2019-03-10T01:03:07.013Z,100688.58
2019-03-10T01:04:13.703Z,100679.68
2019-03-10T01:05:20.998Z,100682.66
2019-03-10T01:06:27.862Z,100685.64
2019-03-10T01:07:34.538Z,100685.64
2019-03-10T01:08:41.673Z,100681.39
2019-03-10T01:09:48.556Z,100672.92
2019-03-10T01:10:55.964Z,100677.17
2019-03-10T01:12:03.487Z,100679.28
2019-03-10T01:13:10.754Z,100676.74
2019-03-10T01:14:17.901Z,100677.17
2019-03-10T01:15:25.246Z,100675.04
2019-03-10T01:16:32.958Z,100677.17
2019-03-10T01:17:40.248Z,100669.55
2019-03-10T01:18:49.777Z,100669.95
2019-03-10T01:19:57.243Z,100663.16
2019-03-10T01:21:05.634Z,100658.93
2019-03-10T01:22:12.624Z,100663.98
2019-03-10T01:23:19.302Z,100658.88
2019-03-10T01:24:26.067Z,100658.44
2019-03-10T01:25:32.702Z,100649.97
2019-03-10T01:26:39.678Z,100643.61
2019-03-10T01:27:46.693Z,100644.45
2019-03-10T01:28:54.206Z,100640.23
2019-03-10T01:30:00.957Z,100638.09
2019-03-10T01:31:52.894Z,100636.37
2019-03-10T01:33:58.226Z,100633.83
2019-03-10T01:35:13.355Z,100634.70
2019-03-10T01:36:17.491Z,100627.48
2019-03-10T01:37:24.439Z,100631.34
2019-03-10T01:38:31.162Z,100625.44
2019-03-10T01:39:37.889Z,100627.98
2019-03-10T01:40:44.958Z,100624.17
2019-03-10T01:41:52.048Z,100627.99
2019-03-10T01:42:59.398Z,100630.97
2019-03-10T01:44:06.335Z,100622.91
2019-03-10T01:45:14.527Z,100625.88
2019-03-10T01:46:21.223Z,100630.53
2019-03-10T01:47:28.791Z,100627.54
2019-03-10T01:48:36.177Z,100626.27
2019-03-10T01:49:42.888Z,100621.62
2019-03-10T01:50:49.715Z,100621.62
2019-03-10T01:51:56.423Z,100613.13
2019-03-10T01:53:03.123Z,100612.29
2019-03-10T01:54:10.253Z,100612.29
2019-03-10T01:55:17.659Z,100609.73
2019-03-10T01:56:25.671Z,100615.22
2019-03-10T01:57:32.373Z,100611.84
2019-03-10T01:58:39.046Z,100612.67
2019-03-10T01:59:45.820Z,100602.11
2019-03-10T02:00:52.872Z,100601.23
2019-03-10T02:01:59.536Z,100598.73
2019-03-10T02:03:06.864Z,100596.14
2019-03-10T02:04:13.905Z,100601.66
2019-03-10T02:05:21.088Z,100589.77
2019-03-10T02:06:28.232Z,100593.15
2019-03-10T02:07:34.941Z,100577.88
2019-03-10T02:08:42.055Z,100576.16
2019-03-10T02:09:49.603Z,100566.03
2019-03-10T02:10:56.607Z,100567.27
2019-03-10T02:12:03.265Z,100559.23
2019-03-10T02:13:09.888Z,100563.05
2019-03-10T02:14:17.329Z,100562.17
2019-03-10T02:15:24.010Z,100560.89
2019-03-10T02:16:30.893Z,100554.08
2019-03-10T02:17:37.565Z,100549.44
2019-03-10T02:18:44.942Z,100549.00
2019-03-10T02:19:52.200Z,100552.81
2019-03-10T02:20:59.294Z,100549.00
2019-03-10T02:22:06.388Z,100543.07
2019-03-10T02:23:13.107Z,100545.17
2019-03-10T02:24:23.706Z,100537.53
2019-03-10T02:25:28.426Z,100535.39
2019-03-10T02:26:35.542Z,100532.01
2019-03-10T02:27:42.318Z,100529.45
2019-03-10T02:28:48.958Z,100532.38
2019-03-10T02:29:55.649Z,100527.72
2019-03-10T02:31:02.944Z,100529.43
2019-03-10T02:32:10.398Z,100526.46
2019-03-10T02:33:17.227Z,100523.52
2019-03-10T02:34:24.223Z,100523.11
2019-03-10T02:35:30.926Z,100517.63
2019-03-10T02:36:38.452Z,100519.73
2019-03-10T02:37:45.570Z,100516.73
2019-03-10T02:38:54.256Z,100505.72
2019-03-10T02:40:01.270Z,100504.01
2019-03-10T02:41:07.972Z,100504.02
2019-03-10T02:42:14.999Z,100504.41
2019-03-10T02:43:21.750Z,100500.58
2019-03-10T02:44:28.726Z,100497.64
2019-03-10T02:45:35.383Z,100489.58
2019-03-10T02:46:42.745Z,100489.58
2019-03-10T02:47:49.754Z,100493.40
2019-03-10T02:48:56.470Z,100492.95
2019-03-10T02:50:03.489Z,100487.87
2019-03-10T02:51:10.164Z,100483.66
2019-03-10T02:52:16.873Z,100481.50
2019-03-10T02:53:23.652Z,100483.20
2019-03-10T02:54:30.861Z,100481.05
2019-03-10T02:55:37.585Z,100478.09
2019-03-10T02:56:44.584Z,100479.77
2019-03-10T02:57:51.351Z,100479.77
2019-03-10T02:58:58.307Z,100474.27
2019-03-10T03:00:06.928Z,100473.41
2019-03-10T03:01:13.579Z,100470.92
2019-03-10T03:02:20.367Z,100466.67
2019-03-10T03:03:27.342Z,100460.28
2019-03-10T03:04:34.323Z,100456.05
2019-03-10T03:05:41.378Z,100450.94
2019-03-10T03:06:47.992Z,100455.22
2019-03-10T03:07:55.312Z,100449.30
2019-03-10T03:09:02.021Z,100445.89
2019-03-10T03:10:11.325Z,100442.50
2019-03-10T03:11:17.997Z,100442.50
2019-03-10T03:12:24.993Z,100437.86
2019-03-10T03:13:31.729Z,100435.31
2019-03-10T03:14:38.447Z,100427.68
2019-03-10T03:15:45.156Z,100431.03
2019-03-10T03:16:52.950Z,100427.64
2019-03-10T03:18:00.094Z,100423.87
2019-03-10T03:19:07.316Z,100422.98
2019-03-10T03:20:14.233Z,100418.73
2019-03-10T03:21:21.273Z,100417.93
2019-03-10T03:22:27.958Z,100413.72
2019-03-10T03:23:34.715Z,100414.54
2019-03-10T03:24:41.903Z,100406.91
2019-03-10T03:25:48.559Z,100401.38
2019-03-10T03:26:55.606Z,100405.19
2019-03-10T03:28:02.722Z,100397.56
2019-03-10T03:29:09.439Z,100397.16
2019-03-10T03:30:17.382Z,100389.11
2019-03-10T03:31:24.104Z,100390.38
2019-03-10T03:32:30.781Z,100392.09
2019-03-10T03:33:37.883Z,100389.13
2019-03-10T03:34:45.017Z,100383.56
2019-03-10T03:35:58.562Z,100380.17
2019-03-10T03:37:06.069Z,100383.55
2019-03-10T03:38:12.749Z,100381.45
2019-03-10T03:39:45.409Z,100378.89
2019-03-10T03:40:58.656Z,100372.09
2019-03-10T03:42:05.360Z,100366.13
2019-03-10T03:43:12.045Z,100369.94
2019-03-10T03:44:19.044Z,100358.10
2019-03-10T03:45:26.341Z,100360.20
2019-03-10T03:46:33.040Z,100354.72
2019-03-10T03:47:39.979Z,100349.20
2019-03-10T03:48:46.678Z,100353.00
2019-03-10T03:49:53.444Z,100356.39
2019-03-10T03:51:00.126Z,100355.56
2019-03-10T03:52:21.973Z,100348.74
2019-03-10T03:53:29.022Z,100343.66
2019-03-10T03:54:35.728Z,100341.95
2019-03-10T03:55:42.436Z,100334.75
2019-03-10T03:56:49.118Z,100334.75
2019-03-10T03:57:55.841Z,100327.95
2019-03-10T03:59:02.687Z,100329.65
2019-03-10T04:00:10.186Z,100334.28
2019-03-10T04:01:20.280Z,100326.66
2019-03-10T04:02:51.627Z,100327.95
2019-03-10T04:03:58.373Z,100325.02
2019-03-10T04:05:05.730Z,100322.46
2019-03-10T04:06:12.423Z,100318.59
2019-03-10T04:07:19.090Z,100320.73
2019-03-10T04:08:26.073Z,100322.41
2019-03-10T04:09:32.730Z,100313.12
2019-03-10T04:10:39.954Z,100318.19
2019-03-10T04:11:47.110Z,100308.48
2019-03-10T04:12:54.398Z,100308.05
2019-03-10T04:14:01.145Z,100306.79
2019-03-10T04:15:07.930Z,100296.22
2019-03-10T04:16:14.809Z,100300.86
2019-03-10T04:17:22.184Z,100286.44
2019-03-10T04:18:28.879Z,100294.95
2019-03-10T04:19:36.605Z,100290.70
2019-03-10T04:20:43.615Z,100286.46
2019-03-10T04:21:50.320Z,100284.36
2019-03-10T04:22:57.053Z,100283.91
2019-03-10T04:24:04.115Z,100287.67
2019-03-10T04:25:11.275Z,100286.84
2019-03-10T04:26:18.350Z,100280.05
2019-03-10T04:27:25.397Z,100277.89
2019-03-10T04:28:32.393Z,100275.80
2019-03-10T04:29:39.738Z,100276.61
2019-03-10T04:30:46.384Z,100280.42
2019-03-10T04:31:53.785Z,100271.59
2019-03-10T04:33:01.061Z,100264.77
2019-03-10T04:34:08.021Z,100258.39
2019-03-10T04:35:14.728Z,100252.05
2019-03-10T04:36:21.409Z,100245.73
2019-03-10T04:37:28.059Z,100252.45
2019-03-10T04:38:34.737Z,100238.93
2019-03-10T04:39:41.502Z,100235.08
2019-03-10T04:40:48.716Z,100235.53
2019-03-10T04:41:55.560Z,100235.92
2019-03-10T04:43:02.647Z,100233.84
2019-03-10T04:44:09.626Z,100230.05
2019-03-10T04:45:16.286Z,100235.59
2019-03-10T04:46:23.341Z,100241.58
2019-03-10T04:47:30.532Z,100246.70
2019-03-10T04:48:37.814Z,100242.44
2019-03-10T04:49:44.885Z,100242.03
2019-03-10T04:50:52.093Z,100243.70
2019-03-10T04:51:58.878Z,100249.65
2019-03-10T04:53:05.960Z,100235.66
2019-03-10T04:54:13.307Z,100230.59
2019-03-10T04:55:41.879Z,100221.25
2019-03-10T04:56:58.805Z,100217.86
2019-03-10T04:58:07.579Z,100209.34
2019-03-10T04:59:14.705Z,100216.13
2019-03-10T05:00:21.399Z,100219.04
2019-03-10T05:01:28.211Z,100219.92
2019-03-10T05:02:34.921Z,100219.08
2019-03-10T05:03:41.630Z,100211.45
2019-03-10T05:04:50.061Z,100213.97
2019-03-10T05:05:57.162Z,100217.78
2019-03-10T05:07:03.909Z,100216.11
2019-03-10T05:08:10.641Z,100213.16
2019-03-10T05:09:17.668Z,100199.61
2019-03-10T05:10:25.253Z,100197.88
2019-03-10T05:11:32.005Z,100191.52
2019-03-10T05:12:38.650Z,100193.61
2019-03-10T05:13:45.705Z,100189.77
2019-03-10T05:14:52.906Z,100183.41
2019-03-10T05:15:59.797Z,100184.24
2019-03-10T05:17:07.246Z,100181.31
2019-03-10T05:18:14.257Z,100178.34
2019-03-10T05:19:21.361Z,100178.30
2019-03-10T05:20:28.105Z,100178.77
2019-03-10T05:21:34.809Z,100175.80
2019-03-10T05:22:41.481Z,100169.86
2019-03-10T05:23:48.507Z,100164.81
2019-03-10T05:24:55.265Z,100161.83
2019-03-10T05:26:02.473Z,100153.38
2019-03-10T05:27:09.542Z,100149.53
2019-03-10T05:28:16.870Z,100149.09
2019-03-10T05:29:23.935Z,100146.99
2019-03-10T05:30:30.674Z,100151.20
2019-03-10T05:31:37.356Z,100141.45
2019-03-10T05:32:44.811Z,100143.16
2019-03-10T05:33:51.650Z,100138.45
2019-03-10T05:34:58.950Z,100139.73
2019-03-10T05:36:05.911Z,100132.91
2019-03-10T05:37:13.031Z,100127.88
2019-03-10T05:38:19.673Z,100125.35
2019-03-10T05:39:26.377Z,100123.64
2019-03-10T05:40:33.429Z,100129.53
2019-03-10T05:41:40.708Z,100132.10
2019-03-10T05:42:47.412Z,100132.54
2019-03-10T05:43:54.436Z,100126.19
2019-03-10T05:45:01.212Z,100122.79
2019-03-10T05:46:08.394Z,100118.09
2019-03-10T05:47:15.677Z,100111.70
2019-03-10T05:48:22.345Z,100105.35
2019-03-10T05:49:29.210Z,100095.98
2019-03-10T05:50:36.037Z,100096.42
2019-03-10T05:51:42.765Z,100090.53
2019-03-10T05:52:49.835Z,100090.06
2019-03-10T05:53:56.633Z,100079.87
2019-03-10T05:55:03.503Z,100075.14
2019-03-10T05:56:10.994Z,100075.59
2019-03-10T05:57:18.169Z,100076.88
2019-03-10T05:58:25.022Z,100071.37
2019-03-10T05:59:32.089Z,100073.11
2019-03-10T06:00:42.936Z,100068.93
2019-03-10T06:01:47.120Z,100068.13
2019-03-10T06:02:54.528Z,100078.22
2019-03-10T06:04:02.350Z,100070.67
2019-03-10T06:05:09.198Z,100074.05
2019-03-10T06:06:16.250Z,100065.20
2019-03-10T06:07:23.060Z,100064.77
2019-03-10T06:08:29.875Z,100063.52
2019-03-10T06:09:36.857Z,100064.42
2019-03-10T06:10:43.587Z,100055.52
2019-03-10T06:11:50.254Z,100058.50
2019-03-10T06:12:56.913Z,100056.39
2019-03-10T06:14:04.012Z,100051.66
2019-03-10T06:15:11.077Z,100051.17
2019-03-10T06:16:18.171Z,100052.49
2019-03-10T06:17:24.964Z,100053.84
2019-03-10T06:18:32.437Z,100056.80
2019-03-10T06:19:39.136Z,100052.98
2019-03-10T06:20:46.059Z,100048.36
2019-03-10T06:21:53.020Z,100042.39
2019-03-10T06:23:00.015Z,100040.64
2019-03-10T06:24:06.701Z,100038.97
2019-03-10T06:25:14.215Z,100034.45
2019-03-10T06:26:21.275Z,100034.38
2019-03-10T06:27:28.327Z,100025.09
2019-03-10T06:28:34.973Z,100025.38
2019-03-10T06:29:41.721Z,100019.38
2019-03-10T06:30:48.363Z,100012.98
2019-03-10T06:31:55.178Z,100009.61
2019-03-10T06:33:01.887Z,100006.64
2019-03-10T06:34:08.951Z,100010.45
2019-03-10T06:35:15.650Z,100007.50
2019-03-10T06:36:22.725Z,100005.73
2019-03-10T06:37:29.502Z,99999.63
2019-03-10T06:38:36.224Z,99994.63
2019-03-10T06:39:42.914Z,100004.41
2019-03-10T06:40:49.541Z,99995.17
2019-03-10T06:41:56.781Z,99989.15
2019-03-10T06:43:03.818Z,99992.16
2019-03-10T06:44:11.088Z,99993.39
2019-03-10T06:45:17.789Z,99981.86
2019-03-10T06:46:24.436Z,99979.89
2019-03-10T06:47:31.063Z,99977.27
2019-03-10T06:48:37.691Z,99972.55
2019-03-10T06:49:44.454Z,99973.87
2019-03-10T06:50:51.505Z,99973.03
2019-03-10T06:51:58.150Z,99971.79
2019-03-10T06:53:05.146Z,99963.84
2019-03-10T06:54:12.567Z,99964.63
2019-03-10T06:55:19.841Z,99963.43
2019-03-10T06:56:26.943Z,99963.12
2019-03-10T06:57:34.010Z,99965.81
2019-03-10T06:58:40.898Z,99966.20
2019-03-10T06:59:49.809Z,99961.89
2019-03-10T07:00:56.679Z,99960.83
2019-03-10T07:02:04.023Z,99964.72
2019-03-10T07:03:11.038Z,99957.58
2019-03-10T07:04:17.774Z,99955.14
2019-03-10T07:05:24.930Z,99957.21
2019-03-10T07:06:32.778Z,99954.77
2019-03-10T07:07:39.789Z,99954.02
2019-03-10T07:08:46.567Z,99953.89
2019-03-10T07:09:53.346Z,99950.08
2019-03-10T07:11:00.378Z,99956.06
2019-03-10T07:12:07.045Z,99953.55
2019-03-10T07:13:14.034Z,99940.86
2019-03-10T07:14:20.820Z,99945.16
2019-03-10T07:15:27.568Z,99940.86
2019-03-10T07:16:34.236Z,99941.23
2019-03-10T07:17:40.906Z,99937.00
2019-03-10T07:18:48.012Z,99940.84
2019-03-10T07:19:54.725Z,99937.07
2019-03-10T07:21:01.422Z,99935.37
2019-03-10T07:22:08.651Z,99929.02
2019-03-10T07:23:16.883Z,99940.08
2019-03-10T07:24:23.791Z,99939.73
2019-03-10T07:25:30.588Z,99931.65
2019-03-10T07:26:37.235Z,99932.43
2019-03-10T07:27:57.164Z,99935.08
2019-03-10T07:29:12.366Z,99931.65
2019-03-10T07:30:38.326Z,99929.50
2019-03-10T07:31:53.611Z,99922.61
2019-03-10T07:33:38.789Z,99925.20
2019-03-10T07:35:03.434Z,99920.55
2019-03-10T07:36:22.975Z,99916.02
2019-03-10T07:37:37.053Z,99917.41
2019-03-10T07:39:09.167Z,99914.50
2019-03-10T07:40:33.309Z,99906.31
2019-03-10T07:41:58.891Z,99904.03
2019-03-10T07:43:26.116Z,99899.86
2019-03-10T07:44:40.892Z,99899.20
2019-03-10T07:46:00.103Z,99897.52
2019-03-10T07:47:31.963Z,99893.70
2019-03-10T07:48:48.461Z,99895.76
2019-03-10T07:50:05.835Z,99892.34
2019-03-10T07:51:23.501Z,99892.57
2019-03-10T07:52:46.461Z,99888.55
2019-03-10T07:54:02.851Z,99883.88
2019-03-10T07:55:28.042Z,99882.01
2019-03-10T07:57:11.711Z,99879.16
2019-03-10T07:58:52.629Z,99868.30
2019-03-10T08:00:30.238Z,99867.08
2019-03-10T08:01:59.142Z,99868.99
2019-03-10T08:03:16.879Z,99872.39
2019-03-10T08:04:39.211Z,99870.61
2019-03-10T08:06:07.439Z,99873.95
2019-03-10T08:07:36.284Z,99872.75
2019-03-10T08:09:04.808Z,99873.20
2019-03-10T08:10:42.860Z,99869.02
2019-03-10T08:12:07.195Z,99860.42
2019-03-10T08:13:33.990Z,99861.60
2019-03-10T08:14:58.499Z,99853.43
2019-03-10T08:16:31.221Z,99852.00
2019-03-10T08:17:45.016Z,99837.07
2019-03-10T08:19:19.890Z,99835.20
2019-03-10T08:20:51.590Z,99842.27
2019-03-10T08:22:35.545Z,99833.32
2019-03-10T08:24:01.130Z,99832.84
2019-03-10T08:25:39.079Z,99834.28
2019-03-10T08:27:16.681Z,99844.07
2019-03-10T08:29:00.515Z,99842.35
2019-03-10T08:30:16.461Z,99840.61
2019-03-10T08:31:41.000Z,99832.95
2019-03-10T08:33:00.332Z,99835.94
2019-03-10T08:34:25.135Z,99833.02
2019-03-10T08:35:50.687Z,99828.84
2019-03-10T08:37:14.811Z,99826.32
2019-03-10T08:38:40.100Z,99820.97
2019-03-10T08:40:06.741Z,99828.13
2019-03-10T08:41:34.314Z,99826.02
2019-03-10T08:43:05.972Z,99828.48
2019-03-10T08:44:40.709Z,99821.56
2019-03-10T08:45:55.789Z,99819.61
2019-03-10T08:47:28.780Z,99822.06
2019-03-10T08:49:00.927Z,99813.23
2019-03-10T08:50:18.549Z,99807.12
2019-03-10T08:51:39.512Z,99807.65
2019-03-10T08:52:55.141Z,99800.85
2019-03-10T08:54:13.118Z,99794.20
2019-03-10T08:55:36.024Z,99790.38
2019-03-10T08:57:00.450Z,99783.70
2019-03-10T08:58:28.120Z,99776.08
2019-03-10T08:59:40.826Z,99772.56
2019-03-10T09:01:03.832Z,99766.80
2019-03-10T09:02:40.663Z,99759.17
2019-03-10T09:04:09.738Z,99751.59
2019-03-10T09:05:50.670Z,99742.42
2019-03-10T09:07:23.079Z,99734.00
2019-03-10T09:08:48.655Z,99736.66
2019-03-10T09:10:07.796Z,99733.62
2019-03-10T09:11:32.721Z,99728.02
2019-03-10T09:12:52.638Z,99732.54
2019-03-10T09:14:28.503Z,99723.67
2019-03-10T09:15:53.481Z,99724.28
2019-03-10T09:17:21.709Z,99717.91
2019-03-10T09:18:50.677Z,99712.03
2019-03-10T09:20:06.059Z,99706.53
2019-03-10T09:21:21.906Z,99703.50
2019-03-10T09:22:59.999Z,99704.16
2019-03-10T09:24:24.662Z,99703.75
2019-03-10T09:25:59.601Z,99700.81
2019-03-10T09:27:30.371Z,99700.81
2019-03-10T09:28:56.457Z,99701.23
2019-03-10T09:30:20.972Z,99696.13
2019-03-10T09:31:56.272Z,99704.16
2019-03-10T09:33:29.382Z,99691.04
2019-03-10T09:34:57.043Z,99692.70
2019-03-10T09:36:25.724Z,99686.79
2019-03-10T09:37:51.381Z,99686.38
2019-03-10T09:39:16.621Z,99682.55
2019-03-10T09:41:02.463Z,99682.20
2019-03-10T09:42:46.823Z,99672.52
2019-03-10T09:44:15.216Z,99666.84
2019-03-10T09:45:40.901Z,99662.74
2019-03-10T09:46:58.289Z,99662.42
2019-03-10T09:48:22.333Z,99661.27
2019-03-10T09:49:47.034Z,99659.75
2019-03-10T09:51:11.733Z,99649.97
2019-03-10T09:52:49.560Z,99642.38
2019-03-10T09:54:14.286Z,99650.03
2019-03-10T09:55:32.287Z,99649.27
2019-03-10T09:56:50.006Z,99639.25
2019-03-10T09:58:14.199Z,99635.06
2019-03-10T09:59:39.731Z,99627.02
2019-03-10T10:01:11.673Z,99625.61
2019-03-10T10:02:37.530Z,99623.92
2019-03-10T10:04:03.118Z,99619.97
2019-03-10T10:05:24.820Z,99613.91
2019-03-10T10:06:44.885Z,99614.97
2019-03-10T10:08:09.032Z,99606.84
2019-03-10T10:09:47.941Z,99609.60
2019-03-10T10:11:16.501Z,99602.48
2019-03-10T10:12:45.842Z,99596.52
2019-03-10T10:14:09.067Z,99586.25
2019-03-10T10:15:27.778Z,99584.77
2019-03-10T10:16:44.770Z,99582.53
2019-03-10T10:18:10.687Z,99577.58
2019-03-10T10:19:39.101Z,99572.63
2019-03-10T10:21:07.865Z,99577.20
2019-03-10T10:22:28.972Z,99575.48
2019-03-10T10:23:53.764Z,99581.56
2019-03-10T10:25:22.352Z,99587.45
2019-03-10T10:26:53.655Z,99587.83
2019-03-10T10:28:22.485Z,99577.38
2019-03-10T10:29:46.563Z,99565.51
2019-03-10T10:31:13.840Z,99561.80
2019-03-10T10:32:25.022Z,99549.56
2019-03-10T10:33:56.751Z,99542.53
2019-03-10T10:35:17.850Z,99533.92
2019-03-10T10:37:13.743Z,99529.86
2019-03-10T10:38:38.136Z,99533.73
2019-03-10T10:40:09.801Z,99526.63
2019-03-10T10:41:35.363Z,99523.39
2019-03-10T10:43:13.071Z,99509.94
2019-03-10T10:44:42.765Z,99502.98
2019-03-10T10:46:04.102Z,99504.34
2019-03-10T10:47:45.595Z,99503.08
2019-03-10T10:49:17.164Z,99505.48
2019-03-10T10:50:48.652Z,99499.59
2019-03-10T10:52:23.399Z,99498.28
2019-03-10T10:53:58.451Z,99495.80
2019-03-10T10:55:23.353Z,99495.80
2019-03-10T10:56:43.815Z,99492.82
2019-03-10T10:58:00.114Z,99482.31
2019-03-10T10:59:31.759Z,99480.46
2019-03-10T11:00:46.411Z,99480.74
2019-03-10T11:02:15.107Z,99476.03
2019-03-10T11:03:44.354Z,99466.70
2019-03-10T11:05:10.220Z,99468.76
2019-03-10T11:06:34.814Z,99454.89
2019-03-10T11:07:49.155Z,99457.88
2019-03-10T11:09:14.711Z,99451.83
2019-03-10T11:10:43.234Z,99456.19
2019-03-10T11:12:15.151Z,99453.27
2019-03-10T11:13:40.024Z,99455.67
2019-03-10T11:15:10.681Z,99455.13
2019-03-10T11:16:34.876Z,99450.11
2019-03-10T11:17:48.114Z,99453.58
2019-03-10T11:19:13.666Z,99440.98
2019-03-10T11:20:37.045Z,99439.05
2019-03-10T11:22:10.428Z,99432.02
2019-03-10T11:23:36.474Z,99430.41
2019-03-10T11:25:17.393Z,99421.92
2019-03-10T11:26:51.475Z,99417.91
2019-03-10T11:28:16.697Z,99418.86
2019-03-10T11:29:42.045Z,99421.78
2019-03-10T11:31:03.580Z,99412.86
2019-03-10T11:32:28.115Z,99414.71
2019-03-10T11:33:53.663Z,99410.94
2019-03-10T11:35:31.840Z,99402.18
2019-03-10T11:36:51.894Z,99397.76
2019-03-10T11:38:03.825Z,99396.17
2019-03-10T11:39:32.849Z,99395.59
2019-03-10T11:40:47.261Z,99392.40
2019-03-10T11:42:19.074Z,99394.91
2019-03-10T11:43:40.844Z,99388.56
2019-03-10T11:44:49.619Z,99381.66
2019-03-10T11:46:47.330Z,99383.48
2019-03-10T11:48:02.330Z,99381.42
2019-03-10T11:49:27.017Z,99381.70
2019-03-10T11:50:51.358Z,99379.16
2019-03-10T11:52:05.192Z,99379.98
2019-03-10T11:53:21.160Z,99391.23
2019-03-10T11:54:48.994Z,99384.00
2019-03-10T11:56:02.845Z,99377.92
2019-03-10T11:57:31.244Z,99374.08
2019-03-10T11:58:44.134Z,99370.99
2019-03-10T12:00:12.467Z,99357.88
2019-03-10T12:01:25.169Z,99364.98
2019-03-10T12:02:41.485Z,99360.59
2019-03-10T12:03:56.985Z,99355.55
2019-03-10T12:05:25.530Z,99351.88
2019-03-10T12:06:54.114Z,99353.83
2019-03-10T12:08:26.072Z,99358.59
2019-03-10T12:09:33.264Z,99358.53
2019-03-10T12:10:39.949Z,99356.85
2019-03-10T12:11:46.650Z,99357.27
2019-03-10T12:12:53.370Z,99351.36
2019-03-10T12:14:00.562Z,99346.62
2019-03-10T12:15:08.946Z,99346.42
2019-03-10T12:16:16.174Z,99335.70
2019-03-10T12:17:23.163Z,99325.14
2019-03-10T12:18:30.545Z,99324.95
2019-03-10T12:19:37.242Z,99322.80
2019-03-10T12:20:44.639Z,99319.69
2019-03-10T12:21:52.226Z,99320.16
2019-03-10T12:22:58.944Z,99316.63
2019-03-10T12:24:05.575Z,99318.41
2019-03-10T12:25:12.253Z,99317.66
2019-03-10T12:26:19.307Z,99311.69
2019-03-10T12:27:28.195Z,99308.50
2019-03-10T12:28:35.321Z,99300.89
2019-03-10T12:29:42.039Z,99298.38
2019-03-10T12:30:48.697Z,99297.45
2019-03-10T12:31:55.638Z,99299.17
2019-03-10T12:33:02.561Z,99293.23
2019-03-10T12:34:10.293Z,99300.67
2019-03-10T12:35:16.996Z,99293.53
2019-03-10T12:36:24.539Z,99297.16
2019-03-10T12:37:31.300Z,99296.69
2019-03-10T12:38:38.015Z,99297.27
2019-03-10T12:39:45.467Z,99290.03
2019-03-10T12:40:52.416Z,99280.77
2019-03-10T12:42:00.274Z,99284.23
2019-03-10T12:43:06.949Z,99277.63
2019-03-10T12:44:13.679Z,99276.72
2019-03-10T12:45:20.343Z,99278.30
2019-03-10T12:46:27.822Z,99275.45
2019-03-10T12:47:34.523Z,99278.67
2019-03-10T12:48:41.626Z,99281.22
2019-03-10T12:49:48.755Z,99272.77
2019-03-10T12:50:55.446Z,99272.70
2019-03-10T12:52:02.423Z,99261.05
2019-03-10T12:53:09.150Z,99265.00
2019-03-10T12:54:15.819Z,99264.70
2019-03-10T12:55:22.790Z,99259.50
2019-03-10T12:56:29.798Z,99252.48
2019-03-10T12:57:36.887Z,99243.86
2019-03-10T12:58:43.652Z,99241.77
2019-03-10T12:59:50.348Z,99238.71
2019-03-10T13:01:05.563Z,99235.66
2019-03-10T13:02:05.526Z,99236.55
2019-03-10T13:03:13.612Z,99229.34
2019-03-10T13:04:20.296Z,99232.14
2019-03-10T13:05:28.346Z,99231.39
2019-03-10T13:06:35.276Z,99233.11
2019-03-10T13:07:42.290Z,99235.66
2019-03-10T13:08:49.409Z,99233.94
2019-03-10T13:09:56.121Z,99231.09
2019-03-10T13:11:04.289Z,99241.25
2019-03-10T13:12:10.961Z,99241.29
2019-03-10T13:13:18.194Z,99247.19
2019-03-10T13:14:25.579Z,99244.27
2019-03-10T13:15:32.296Z,99252.71
2019-03-10T13:16:39.634Z,99253.02
2019-03-10T13:17:46.664Z,99251.59
2019-03-10T13:18:54.041Z,99244.58
2019-03-10T13:20:00.749Z,99238.41
2019-03-10T13:21:07.431Z,99234.08
2019-03-10T13:22:16.151Z,99223.92
2019-03-10T13:23:22.823Z,99224.48
2019-03-10T13:24:31.739Z,99220.56
2019-03-10T13:25:38.893Z,99217.50
2019-03-10T13:26:45.556Z,99216.68
2019-03-10T13:27:52.266Z,99220.56
2019-03-10T13:28:59.031Z,99218.88
2019-03-10T13:30:07.308Z,99214.70
2019-03-10T13:31:14.049Z,99213.13
2019-03-10T13:32:20.677Z,99208.58
2019-03-10T13:33:27.889Z,99205.07
2019-03-10T13:34:34.763Z,99199.13
2019-03-10T13:35:41.582Z,99199.95
2019-03-10T13:36:48.307Z,99202.16
2019-03-10T13:37:55.333Z,99199.17
2019-03-10T13:39:02.437Z,99195.55
2019-03-10T13:40:10.043Z,99195.14
2019-03-10T13:41:17.143Z,99194.39
2019-03-10T13:42:23.846Z,99199.98
2019-03-10T13:43:30.619Z,99203.23
2019-03-10T13:44:39.713Z,99196.48
2019-03-10T13:45:47.308Z,99198.08
2019-03-10T13:46:54.316Z,99190.88
2019-03-10T13:48:01.299Z,99194.61
2019-03-10T13:49:07.991Z,99194.95
2019-03-10T13:50:15.855Z,99193.30
2019-03-10T13:51:23.254Z,99194.20
2019-03-10T13:52:29.980Z,99198.11
2019-03-10T13:53:37.018Z,99187.26
2019-03-10T13:54:44.525Z,99183.27
2019-03-10T13:55:51.879Z,99185.58
2019-03-10T13:56:59.106Z,99189.27
2019-03-10T13:58:06.126Z,99206.94
2019-03-10T13:59:12.862Z,99191.78
2019-03-10T14:00:22.771Z,99190.63
2019-03-10T14:01:29.725Z,99189.31
2019-03-10T14:02:39.252Z,99188.05
2019-03-10T14:03:46.228Z,99179.24
2019-03-10T14:04:53.359Z,99176.70
2019-03-10T14:06:00.370Z,99173.42
2019-03-10T14:07:07.108Z,99164.52
2019-03-10T14:08:13.836Z,99176.88
2019-03-10T14:09:20.532Z,99177.70